sensor_id;sensor_type;location;lat;lon;timestamp;P1;durP1;ratioP1;P2;durP2;ratioP2
9797;SDS011;4938;57.492;12.652;2022-08-11T00:01:58;1.27;;;1.27;;
9797;SDS011;4938;57.492;12.652;2022-08-11T00:04:46;3.50;;;1.63;;
9797;SDS011;4938;57.492;12.652;2022-08-11T00:07:34;1.43;;;1.43;;
9797;SDS011;4938;57.492;12.652;2022-08-11T00:10:29;1.30;;;1.30;;
9797;SDS011;4938;57.492;12.652;2022-08-11T00:13:16;1.30;;;1.30;;
9797;SDS011;4938;57.492;12.652;2022-08-11T00:16:10;1.43;;;1.33;;
9797;SDS011;4938;57.492;12.652;2022-08-11T00:19:00;1.10;;;1.10;;
9797;SDS011;4938;57.492;12.652;2022-08-11T00:21:48;1.30;;;1.30;;
9797;SDS011;4938;57.492;12.652;2022-08-11T00:24:36;1.40;;;1.40;;
9797;SDS011;4938;57.492;12.652;2022-08-11T00:27:31;1.23;;;1.23;;
9797;SDS011;4938;57.492;12.652;2022-08-11T00:30:19;1.70;;;1.60;;
9797;SDS011;4938;57.492;12.652;2022-08-11T00:33:06;1.37;;;1.37;;
9797;SDS011;4938;57.492;12.652;2022-08-11T00:35:56;1.40;;;1.40;;
9797;SDS011;4938;57.492;12.652;2022-08-11T00:38:47;1.13;;;1.13;;
9797;SDS011;4938;57.492;12.652;2022-08-11T00:41:38;1.33;;;1.27;;
9797;SDS011;4938;57.492;12.652;2022-08-11T00:44:35;1.80;;;1.70;;
9797;SDS011;4938;57.492;12.652;2022-08-11T00:47:34;1.30;;;1.30;;
9797;SDS011;4938;57.492;12.652;2022-08-11T00:50:36;1.40;;;1.40;;
9797;SDS011;4938;57.492;12.652;2022-08-11T00:53:34;1.37;;;1.37;;
9797;SDS011;4938;57.492;12.652;2022-08-11T00:56:42;1.47;;;1.40;;
9797;SDS011;4938;57.492;12.652;2022-08-11T01:00:02;1.30;;;1.30;;
9797;SDS011;4938;57.492;12.652;2022-08-11T01:03:09;1.53;;;1.43;;
9797;SDS011;4938;57.492;12.652;2022-08-11T01:06:20;1.40;;;1.30;;
9797;SDS011;4938;57.492;12.652;2022-08-11T01:09:29;1.77;;;1.67;;
9797;SDS011;4938;57.492;12.652;2022-08-11T01:12:31;1.70;;;1.60;;
9797;SDS011;4938;57.492;12.652;2022-08-11T01:19:07;1.73;;;1.63;;
9797;SDS011;4938;57.492;12.652;2022-08-11T01:22:18;1.50;;;1.40;;
9797;SDS011;4938;57.492;12.652;2022-08-11T01:35:46;1.70;;;1.70;;
9797;SDS011;4938;57.492;12.652;2022-08-11T01:39:00;1.60;;;1.60;;
9797;SDS011;4938;57.492;12.652;2022-08-11T01:45:56;1.70;;;1.60;;
9797;SDS011;4938;57.492;12.652;2022-08-11T01:48:52;1.73;;;1.73;;
9797;SDS011;4938;57.492;12.652;2022-08-11T01:51:53;2.00;;;1.90;;
9797;SDS011;4938;57.492;12.652;2022-08-11T01:54:52;2.07;;;1.97;;
9797;SDS011;4938;57.492;12.652;2022-08-11T01:57:46;1.83;;;1.73;;
9797;SDS011;4938;57.492;12.652;2022-08-11T02:00:42;1.70;;;1.70;;
9797;SDS011;4938;57.492;12.652;2022-08-11T02:03:38;1.87;;;1.77;;
9797;SDS011;4938;57.492;12.652;2022-08-11T02:06:34;1.80;;;1.80;;
9797;SDS011;4938;57.492;12.652;2022-08-11T02:09:46;2.00;;;1.90;;
9797;SDS011;4938;57.492;12.652;2022-08-11T02:12:43;2.17;;;2.07;;
9797;SDS011;4938;57.492;12.652;2022-08-11T02:15:36;1.87;;;1.87;;
9797;SDS011;4938;57.492;12.652;2022-08-11T02:18:37;2.00;;;1.90;;
9797;SDS011;4938;57.492;12.652;2022-08-11T02:21:47;1.80;;;1.80;;
9797;SDS011;4938;57.492;12.652;2022-08-11T02:24:57;2.23;;;2.13;;
9797;SDS011;4938;57.492;12.652;2022-08-11T02:27:49;2.30;;;2.20;;
9797;SDS011;4938;57.492;12.652;2022-08-11T02:30:40;2.00;;;1.90;;
9797;SDS011;4938;57.492;12.652;2022-08-11T02:33:59;2.03;;;1.93;;
9797;SDS011;4938;57.492;12.652;2022-08-11T02:37:15;2.80;;;2.60;;
9797;SDS011;4938;57.492;12.652;2022-08-11T02:40:16;2.37;;;2.27;;
9797;SDS011;4938;57.492;12.652;2022-08-11T02:43:17;2.10;;;2.00;;
9797;SDS011;4938;57.492;12.652;2022-08-11T02:46:17;2.17;;;2.07;;
9797;SDS011;4938;57.492;12.652;2022-08-11T02:49:09;2.40;;;2.30;;
9797;SDS011;4938;57.492;12.652;2022-08-11T02:52:26;2.30;;;2.20;;
9797;SDS011;4938;57.492;12.652;2022-08-11T02:55:23;2.33;;;2.23;;
9797;SDS011;4938;57.492;12.652;2022-08-11T02:58:16;2.13;;;2.03;;
9797;SDS011;4938;57.492;12.652;2022-08-11T03:01:14;2.60;;;2.40;;
9797;SDS011;4938;57.492;12.652;2022-08-11T03:04:06;2.23;;;2.13;;
9797;SDS011;4938;57.492;12.652;2022-08-11T03:06:59;2.60;;;2.40;;
9797;SDS011;4938;57.492;12.652;2022-08-11T03:09:52;2.40;;;2.30;;
9797;SDS011;4938;57.492;12.652;2022-08-11T03:12:46;2.60;;;2.50;;
9797;SDS011;4938;57.492;12.652;2022-08-11T03:15:59;2.03;;;1.93;;
9797;SDS011;4938;57.492;12.652;2022-08-11T03:19:18;2.60;;;2.50;;
9797;SDS011;4938;57.492;12.652;2022-08-11T03:22:12;2.43;;;2.33;;
9797;SDS011;4938;57.492;12.652;2022-08-11T03:25:07;2.30;;;2.20;;
9797;SDS011;4938;57.492;12.652;2022-08-11T03:28:03;2.57;;;2.47;;
9797;SDS011;4938;57.492;12.652;2022-08-11T03:31:08;2.20;;;2.10;;
9797;SDS011;4938;57.492;12.652;2022-08-11T03:34:05;2.83;;;2.67;;
9797;SDS011;4938;57.492;12.652;2022-08-11T03:37:02;2.50;;;2.40;;
9797;SDS011;4938;57.492;12.652;2022-08-11T03:39:58;2.80;;;2.60;;
9797;SDS011;4938;57.492;12.652;2022-08-11T03:42:56;2.50;;;2.40;;
9797;SDS011;4938;57.492;12.652;2022-08-11T03:45:51;2.67;;;2.50;;
9797;SDS011;4938;57.492;12.652;2022-08-11T03:48:48;2.30;;;2.20;;
9797;SDS011;4938;57.492;12.652;2022-08-11T03:51:44;2.77;;;2.67;;
9797;SDS011;4938;57.492;12.652;2022-08-11T03:54:40;2.40;;;2.30;;
9797;SDS011;4938;57.492;12.652;2022-08-11T03:57:49;2.60;;;2.50;;
9797;SDS011;4938;57.492;12.652;2022-08-11T04:11:35;2.80;;;2.70;;
9797;SDS011;4938;57.492;12.652;2022-08-11T04:21:48;2.80;;;2.70;;
9797;SDS011;4938;57.492;12.652;2022-08-11T04:25:01;2.80;;;2.70;;
9797;SDS011;4938;57.492;12.652;2022-08-11T04:31:22;2.70;;;2.60;;
9797;SDS011;4938;57.492;12.652;2022-08-11T04:37:48;2.60;;;2.50;;
9797;SDS011;4938;57.492;12.652;2022-08-11T04:41:18;2.60;;;2.50;;
9797;SDS011;4938;57.492;12.652;2022-08-11T04:47:50;2.57;;;2.47;;
9797;SDS011;4938;57.492;12.652;2022-08-11T04:51:21;2.60;;;2.50;;
9797;SDS011;4938;57.492;12.652;2022-08-11T04:54:41;2.50;;;2.40;;
9797;SDS011;4938;57.492;12.652;2022-08-11T04:57:58;2.40;;;2.30;;
9797;SDS011;4938;57.492;12.652;2022-08-11T05:01:18;2.40;;;2.30;;
9797;SDS011;4938;57.492;12.652;2022-08-11T05:10:51;2.30;;;2.20;;
9797;SDS011;4938;57.492;12.652;2022-08-11T05:13:49;2.23;;;2.13;;
9797;SDS011;4938;57.492;12.652;2022-08-11T05:16:56;2.13;;;2.03;;
9797;SDS011;4938;57.492;12.652;2022-08-11T05:20:07;2.20;;;2.10;;
9797;SDS011;4938;57.492;12.652;2022-08-11T05:23:13;1.60;;;1.60;;
9797;SDS011;4938;57.492;12.652;2022-08-11T05:26:19;2.23;;;2.13;;
9797;SDS011;4938;57.492;12.652;2022-08-11T05:29:26;2.10;;;2.00;;
9797;SDS011;4938;57.492;12.652;2022-08-11T05:32:42;1.83;;;1.80;;
9797;SDS011;4938;57.492;12.652;2022-08-11T05:35:49;1.87;;;1.87;;
9797;SDS011;4938;57.492;12.652;2022-08-11T05:38:48;2.00;;;1.90;;
9797;SDS011;4938;57.492;12.652;2022-08-11T05:42:09;1.40;;;1.40;;
9797;SDS011;4938;57.492;12.652;2022-08-11T05:45:15;1.53;;;1.53;;
9797;SDS011;4938;57.492;12.652;2022-08-11T05:48:20;1.43;;;1.43;;
9797;SDS011;4938;57.492;12.652;2022-08-11T05:51:31;1.67;;;1.67;;
9797;SDS011;4938;57.492;12.652;2022-08-11T05:54:37;1.60;;;1.60;;
9797;SDS011;4938;57.492;12.652;2022-08-11T05:57:44;1.37;;;1.37;;
9797;SDS011;4938;57.492;12.652;2022-08-11T06:00:38;1.47;;;1.47;;
9797;SDS011;4938;57.492;12.652;2022-08-11T06:03:28;1.83;;;1.80;;
9797;SDS011;4938;57.492;12.652;2022-08-11T06:06:38;1.80;;;1.70;;
9797;SDS011;4938;57.492;12.652;2022-08-11T06:09:33;1.37;;;1.37;;
9797;SDS011;4938;57.492;12.652;2022-08-11T06:12:21;1.40;;;1.40;;
9797;SDS011;4938;57.492;12.652;2022-08-11T06:15:11;1.60;;;1.50;;
9797;SDS011;4938;57.492;12.652;2022-08-11T06:17:59;1.37;;;1.37;;
9797;SDS011;4938;57.492;12.652;2022-08-11T06:20:49;1.37;;;1.37;;
9797;SDS011;4938;57.492;12.652;2022-08-11T06:23:38;1.50;;;1.50;;
9797;SDS011;4938;57.492;12.652;2022-08-11T06:26:27;1.47;;;1.43;;
9797;SDS011;4938;57.492;12.652;2022-08-11T06:29:14;1.40;;;1.40;;
9797;SDS011;4938;57.492;12.652;2022-08-11T06:32:04;1.43;;;1.43;;
9797;SDS011;4938;57.492;12.652;2022-08-11T06:38:04;1.70;;;1.70;;
9797;SDS011;4938;57.492;12.652;2022-08-11T06:40:55;1.50;;;1.50;;
9797;SDS011;4938;57.492;12.652;2022-08-11T06:47:11;1.63;;;1.60;;
9797;SDS011;4938;57.492;12.652;2022-08-11T06:50:00;1.40;;;1.40;;
9797;SDS011;4938;57.492;12.652;2022-08-11T06:53:11;1.60;;;1.60;;
9797;SDS011;4938;57.492;12.652;2022-08-11T06:56:03;1.20;;;1.20;;
9797;SDS011;4938;57.492;12.652;2022-08-11T06:59:09;1.30;;;1.27;;
9797;SDS011;4938;57.492;12.652;2022-08-11T07:02:14;1.40;;;1.40;;
9797;SDS011;4938;57.492;12.652;2022-08-11T07:05:07;1.15;;;1.15;;
9797;SDS011;4938;57.492;12.652;2022-08-11T07:11:59;0.93;;;0.93;;
9797;SDS011;4938;57.492;12.652;2022-08-11T07:15:11;1.00;;;1.00;;
9797;SDS011;4938;57.492;12.652;2022-08-11T07:18:22;1.00;;;1.00;;
9797;SDS011;4938;57.492;12.652;2022-08-11T07:21:30;1.08;;;1.08;;
9797;SDS011;4938;57.492;12.652;2022-08-11T07:24:37;0.80;;;0.80;;
9797;SDS011;4938;57.492;12.652;2022-08-11T07:27:44;1.00;;;1.00;;
9797;SDS011;4938;57.492;12.652;2022-08-11T07:30:51;1.05;;;1.00;;
9797;SDS011;4938;57.492;12.652;2022-08-11T07:33:45;1.00;;;1.00;;
9797;SDS011;4938;57.492;12.652;2022-08-11T07:36:36;1.00;;;1.00;;
9797;SDS011;4938;57.492;12.652;2022-08-11T07:39:25;1.02;;;1.02;;
9797;SDS011;4938;57.492;12.652;2022-08-11T07:42:15;1.00;;;1.00;;
9797;SDS011;4938;57.492;12.652;2022-08-11T07:45:07;0.95;;;0.95;;
9797;SDS011;4938;57.492;12.652;2022-08-11T07:48:13;0.70;;;0.70;;
9797;SDS011;4938;57.492;12.652;2022-08-11T07:51:20;1.08;;;0.98;;
9797;SDS011;4938;57.492;12.652;2022-08-11T07:54:24;0.80;;;0.80;;
9797;SDS011;4938;57.492;12.652;2022-08-11T07:57:12;0.77;;;0.77;;
9797;SDS011;4938;57.492;12.652;2022-08-11T08:00:17;0.80;;;0.80;;
9797;SDS011;4938;57.492;12.652;2022-08-11T08:03:22;0.85;;;0.85;;
9797;SDS011;4938;57.492;12.652;2022-08-11T08:06:28;0.65;;;0.65;;
9797;SDS011;4938;57.492;12.652;2022-08-11T08:09:36;0.77;;;0.77;;
9797;SDS011;4938;57.492;12.652;2022-08-11T08:12:41;0.82;;;0.82;;
9797;SDS011;4938;57.492;12.652;2022-08-11T08:15:46;0.90;;;0.90;;
9797;SDS011;4938;57.492;12.652;2022-08-11T08:18:51;0.70;;;0.70;;
9797;SDS011;4938;57.492;12.652;2022-08-11T08:21:40;0.70;;;0.70;;
9797;SDS011;4938;57.492;12.652;2022-08-11T08:24:27;0.80;;;0.80;;
9797;SDS011;4938;57.492;12.652;2022-08-11T08:27:18;0.90;;;0.90;;
9797;SDS011;4938;57.492;12.652;2022-08-11T08:30:07;0.70;;;0.70;;
9797;SDS011;4938;57.492;12.652;2022-08-11T08:33:12;0.60;;;0.60;;
9797;SDS011;4938;57.492;12.652;2022-08-11T08:36:01;0.85;;;0.85;;
9797;SDS011;4938;57.492;12.652;2022-08-11T08:39:02;0.80;;;0.80;;
9797;SDS011;4938;57.492;12.652;2022-08-11T08:41:50;1.30;;;0.80;;
9797;SDS011;4938;57.492;12.652;2022-08-11T08:44:40;0.77;;;0.77;;
9797;SDS011;4938;57.492;12.652;2022-08-11T08:47:34;0.70;;;0.70;;
9797;SDS011;4938;57.492;12.652;2022-08-11T08:50:22;0.80;;;0.80;;
9797;SDS011;4938;57.492;12.652;2022-08-11T08:53:31;0.63;;;0.63;;
9797;SDS011;4938;57.492;12.652;2022-08-11T08:56:24;0.70;;;0.70;;
9797;SDS011;4938;57.492;12.652;2022-08-11T08:59:13;0.70;;;0.70;;
9797;SDS011;4938;57.492;12.652;2022-08-11T09:02:02;0.70;;;0.70;;
9797;SDS011;4938;57.492;12.652;2022-08-11T09:04:51;0.80;;;0.80;;
9797;SDS011;4938;57.492;12.652;2022-08-11T09:07:39;0.70;;;0.70;;
9797;SDS011;4938;57.492;12.652;2022-08-11T09:10:27;0.80;;;0.80;;
9797;SDS011;4938;57.492;12.652;2022-08-11T09:13:17;0.70;;;0.70;;
9797;SDS011;4938;57.492;12.652;2022-08-11T09:16:05;0.70;;;0.70;;
9797;SDS011;4938;57.492;12.652;2022-08-11T09:18:55;0.85;;;0.85;;
9797;SDS011;4938;57.492;12.652;2022-08-11T09:21:45;0.70;;;0.70;;
9797;SDS011;4938;57.492;12.652;2022-08-11T09:24:56;0.80;;;0.80;;
9797;SDS011;4938;57.492;12.652;2022-08-11T09:28:02;1.55;;;0.70;;
9797;SDS011;4938;57.492;12.652;2022-08-11T09:30:51;0.90;;;0.90;;
9797;SDS011;4938;57.492;12.652;2022-08-11T09:33:39;0.77;;;0.77;;
9797;SDS011;4938;57.492;12.652;2022-08-11T09:36:28;1.15;;;1.05;;
9797;SDS011;4938;57.492;12.652;2022-08-11T09:39:30;0.77;;;0.77;;
9797;SDS011;4938;57.492;12.652;2022-08-11T09:42:39;0.75;;;0.75;;
9797;SDS011;4938;57.492;12.652;2022-08-11T09:45:44;0.68;;;0.68;;
9797;SDS011;4938;57.492;12.652;2022-08-11T09:48:39;0.63;;;0.63;;
9797;SDS011;4938;57.492;12.652;2022-08-11T09:51:29;0.68;;;0.68;;
9797;SDS011;4938;57.492;12.652;2022-08-11T09:54:18;0.82;;;0.82;;
9797;SDS011;4938;57.492;12.652;2022-08-11T09:57:07;0.90;;;0.90;;
9797;SDS011;4938;57.492;12.652;2022-08-11T10:00:12;0.60;;;0.60;;
9797;SDS011;4938;57.492;12.652;2022-08-11T10:03:00;0.77;;;0.77;;
9797;SDS011;4938;57.492;12.652;2022-08-11T10:05:53;0.60;;;0.60;;
9797;SDS011;4938;57.492;12.652;2022-08-11T10:09:01;1.02;;;1.00;;
9797;SDS011;4938;57.492;12.652;2022-08-11T10:11:52;0.70;;;0.70;;
9797;SDS011;4938;57.492;12.652;2022-08-11T10:14:43;0.75;;;0.75;;
9797;SDS011;4938;57.492;12.652;2022-08-11T10:17:51;0.70;;;0.70;;
9797;SDS011;4938;57.492;12.652;2022-08-11T10:21:01;0.57;;;0.57;;
9797;SDS011;4938;57.492;12.652;2022-08-11T10:23:51;0.60;;;0.60;;
9797;SDS011;4938;57.492;12.652;2022-08-11T10:26:56;0.75;;;0.75;;
9797;SDS011;4938;57.492;12.652;2022-08-11T10:29:44;0.70;;;0.70;;
9797;SDS011;4938;57.492;12.652;2022-08-11T10:32:50;0.82;;;0.70;;
9797;SDS011;4938;57.492;12.652;2022-08-11T10:35:54;0.98;;;0.80;;
9797;SDS011;4938;57.492;12.652;2022-08-11T10:38:44;0.63;;;0.63;;
9797;SDS011;4938;57.492;12.652;2022-08-11T10:41:36;0.60;;;0.60;;
9797;SDS011;4938;57.492;12.652;2022-08-11T10:44:42;0.50;;;0.50;;
9797;SDS011;4938;57.492;12.652;2022-08-11T10:47:31;0.50;;;0.50;;
9797;SDS011;4938;57.492;12.652;2022-08-11T10:50:20;0.65;;;0.65;;
9797;SDS011;4938;57.492;12.652;2022-08-11T10:53:38;0.75;;;0.75;;
9797;SDS011;4938;57.492;12.652;2022-08-11T10:56:46;0.40;;;0.40;;
9797;SDS011;4938;57.492;12.652;2022-08-11T10:59:51;0.88;;;0.88;;
9797;SDS011;4938;57.492;12.652;2022-08-11T11:02:39;0.60;;;0.60;;
9797;SDS011;4938;57.492;12.652;2022-08-11T11:05:28;0.45;;;0.45;;
9797;SDS011;4938;57.492;12.652;2022-08-11T11:08:17;0.55;;;0.55;;
9797;SDS011;4938;57.492;12.652;2022-08-11T11:11:30;0.60;;;0.60;;
9797;SDS011;4938;57.492;12.652;2022-08-11T11:14:40;0.50;;;0.50;;
9797;SDS011;4938;57.492;12.652;2022-08-11T11:17:46;0.50;;;0.50;;
9797;SDS011;4938;57.492;12.652;2022-08-11T11:20:47;1.45;;;0.50;;
9797;SDS011;4938;57.492;12.652;2022-08-11T11:23:39;0.65;;;0.65;;
9797;SDS011;4938;57.492;12.652;2022-08-11T11:26:36;0.68;;;0.68;;
9797;SDS011;4938;57.492;12.652;2022-08-11T11:29:38;0.43;;;0.43;;
9797;SDS011;4938;57.492;12.652;2022-08-11T11:32:40;1.38;;;0.80;;
9797;SDS011;4938;57.492;12.652;2022-08-11T11:35:38;0.55;;;0.55;;
9797;SDS011;4938;57.492;12.652;2022-08-11T11:38:34;0.40;;;0.40;;
9797;SDS011;4938;57.492;12.652;2022-08-11T11:41:22;0.70;;;0.70;;
9797;SDS011;4938;57.492;12.652;2022-08-11T11:44:12;0.80;;;0.80;;
9797;SDS011;4938;57.492;12.652;2022-08-11T11:47:02;0.47;;;0.47;;
9797;SDS011;4938;57.492;12.652;2022-08-11T11:49:50;0.47;;;0.47;;
9797;SDS011;4938;57.492;12.652;2022-08-11T11:52:38;0.43;;;0.43;;
9797;SDS011;4938;57.492;12.652;2022-08-11T11:55:28;0.35;;;0.35;;
9797;SDS011;4938;57.492;12.652;2022-08-11T11:58:16;0.40;;;0.40;;
9797;SDS011;4938;57.492;12.652;2022-08-11T12:01:21;0.63;;;0.60;;
9797;SDS011;4938;57.492;12.652;2022-08-11T12:04:11;0.50;;;0.50;;
9797;SDS011;4938;57.492;12.652;2022-08-11T12:07:00;0.50;;;0.50;;
9797;SDS011;4938;57.492;12.652;2022-08-11T12:10:02;0.40;;;0.40;;
9797;SDS011;4938;57.492;12.652;2022-08-11T12:12:49;0.63;;;0.63;;
9797;SDS011;4938;57.492;12.652;2022-08-11T12:15:54;0.40;;;0.40;;
9797;SDS011;4938;57.492;12.652;2022-08-11T12:18:48;0.60;;;0.60;;
9797;SDS011;4938;57.492;12.652;2022-08-11T12:21:38;0.60;;;0.60;;
9797;SDS011;4938;57.492;12.652;2022-08-11T12:24:48;0.38;;;0.38;;
9797;SDS011;4938;57.492;12.652;2022-08-11T12:27:52;0.70;;;0.40;;
9797;SDS011;4938;57.492;12.652;2022-08-11T12:30:40;0.43;;;0.40;;
9797;SDS011;4938;57.492;12.652;2022-08-11T12:33:31;0.50;;;0.50;;
9797;SDS011;4938;57.492;12.652;2022-08-11T12:36:18;0.57;;;0.57;;
9797;SDS011;4938;57.492;12.652;2022-08-11T12:39:08;0.55;;;0.55;;
9797;SDS011;4938;57.492;12.652;2022-08-11T12:41:57;0.50;;;0.50;;
9797;SDS011;4938;57.492;12.652;2022-08-11T12:45:02;0.40;;;0.40;;
9797;SDS011;4938;57.492;12.652;2022-08-11T12:48:12;0.32;;;0.32;;
9797;SDS011;4938;57.492;12.652;2022-08-11T12:51:21;0.65;;;0.65;;
9797;SDS011;4938;57.492;12.652;2022-08-11T12:54:30;0.50;;;0.50;;
9797;SDS011;4938;57.492;12.652;2022-08-11T12:57:23;0.40;;;0.40;;
9797;SDS011;4938;57.492;12.652;2022-08-11T13:00:31;0.40;;;0.40;;
9797;SDS011;4938;57.492;12.652;2022-08-11T13:03:35;0.30;;;0.30;;
9797;SDS011;4938;57.492;12.652;2022-08-11T13:06:42;0.65;;;0.65;;
9797;SDS011;4938;57.492;12.652;2022-08-11T13:09:30;0.43;;;0.43;;
9797;SDS011;4938;57.492;12.652;2022-08-11T13:12:17;0.50;;;0.50;;
9797;SDS011;4938;57.492;12.652;2022-08-11T13:15:24;0.40;;;0.40;;
9797;SDS011;4938;57.492;12.652;2022-08-11T13:18:13;0.50;;;0.50;;
9797;SDS011;4938;57.492;12.652;2022-08-11T13:21:01;0.32;;;0.32;;
9797;SDS011;4938;57.492;12.652;2022-08-11T13:23:49;0.50;;;0.50;;
9797;SDS011;4938;57.492;12.652;2022-08-11T13:26:39;0.47;;;0.47;;
9797;SDS011;4938;57.492;12.652;2022-08-11T13:29:28;0.50;;;0.50;;
9797;SDS011;4938;57.492;12.652;2022-08-11T13:32:16;0.85;;;0.45;;
9797;SDS011;4938;57.492;12.652;2022-08-11T13:35:06;0.40;;;0.40;;
9797;SDS011;4938;57.492;12.652;2022-08-11T13:37:55;0.50;;;0.50;;
9797;SDS011;4938;57.492;12.652;2022-08-11T13:40:43;0.50;;;0.50;;
9797;SDS011;4938;57.492;12.652;2022-08-11T13:43:32;0.43;;;0.43;;
9797;SDS011;4938;57.492;12.652;2022-08-11T13:46:19;0.40;;;0.40;;
9797;SDS011;4938;57.492;12.652;2022-08-11T13:49:08;0.30;;;0.30;;
9797;SDS011;4938;57.492;12.652;2022-08-11T13:51:56;0.40;;;0.40;;
9797;SDS011;4938;57.492;12.652;2022-08-11T13:54:45;0.30;;;0.30;;
9797;SDS011;4938;57.492;12.652;2022-08-11T13:57:34;0.30;;;0.30;;
9797;SDS011;4938;57.492;12.652;2022-08-11T14:00:23;0.40;;;0.40;;
9797;SDS011;4938;57.492;12.652;2022-08-11T14:03:16;0.47;;;0.47;;
9797;SDS011;4938;57.492;12.652;2022-08-11T14:06:06;0.40;;;0.40;;
9797;SDS011;4938;57.492;12.652;2022-08-11T14:08:54;0.45;;;0.45;;
9797;SDS011;4938;57.492;12.652;2022-08-11T14:11:42;0.50;;;0.50;;
9797;SDS011;4938;57.492;12.652;2022-08-11T14:14:48;0.40;;;0.40;;
9797;SDS011;4938;57.492;12.652;2022-08-11T14:17:40;0.40;;;0.40;;
9797;SDS011;4938;57.492;12.652;2022-08-11T14:20:28;0.30;;;0.30;;
9797;SDS011;4938;57.492;12.652;2022-08-11T14:23:38;0.50;;;0.50;;
9797;SDS011;4938;57.492;12.652;2022-08-11T14:26:26;0.50;;;0.50;;
9797;SDS011;4938;57.492;12.652;2022-08-11T14:29:16;0.38;;;0.38;;
9797;SDS011;4938;57.492;12.652;2022-08-11T14:32:06;0.47;;;0.47;;
9797;SDS011;4938;57.492;12.652;2022-08-11T14:34:56;0.50;;;0.50;;
9797;SDS011;4938;57.492;12.652;2022-08-11T14:37:44;0.32;;;0.32;;
9797;SDS011;4938;57.492;12.652;2022-08-11T14:40:32;0.40;;;0.40;;
9797;SDS011;4938;57.492;12.652;2022-08-11T14:43:36;0.40;;;0.40;;
9797;SDS011;4938;57.492;12.652;2022-08-11T14:46:41;0.30;;;0.30;;
9797;SDS011;4938;57.492;12.652;2022-08-11T14:49:46;0.30;;;0.30;;
9797;SDS011;4938;57.492;12.652;2022-08-11T14:52:38;0.30;;;0.30;;
9797;SDS011;4938;57.492;12.652;2022-08-11T14:55:29;0.30;;;0.30;;
9797;SDS011;4938;57.492;12.652;2022-08-11T14:58:37;0.28;;;0.28;;
9797;SDS011;4938;57.492;12.652;2022-08-11T15:01:25;0.35;;;0.35;;
9797;SDS011;4938;57.492;12.652;2022-08-11T15:04:29;0.50;;;0.50;;
9797;SDS011;4938;57.492;12.652;2022-08-11T15:07:18;0.45;;;0.45;;
9797;SDS011;4938;57.492;12.652;2022-08-11T15:10:15;0.30;;;0.30;;
9797;SDS011;4938;57.492;12.652;2022-08-11T15:13:03;0.50;;;0.50;;
9797;SDS011;4938;57.492;12.652;2022-08-11T15:15:51;0.32;;;0.30;;
9797;SDS011;4938;57.492;12.652;2022-08-11T15:18:56;0.50;;;0.50;;
9797;SDS011;4938;57.492;12.652;2022-08-11T15:21:44;0.50;;;0.50;;
9797;SDS011;4938;57.492;12.652;2022-08-11T15:24:48;0.30;;;0.30;;
9797;SDS011;4938;57.492;12.652;2022-08-11T15:27:37;0.30;;;0.30;;
9797;SDS011;4938;57.492;12.652;2022-08-11T15:30:43;0.38;;;0.38;;
9797;SDS011;4938;57.492;12.652;2022-08-11T15:33:50;0.30;;;0.30;;
9797;SDS011;4938;57.492;12.652;2022-08-11T15:36:57;0.28;;;0.28;;
9797;SDS011;4938;57.492;12.652;2022-08-11T15:40:08;0.30;;;0.30;;
9797;SDS011;4938;57.492;12.652;2022-08-11T15:43:19;0.50;;;0.50;;
9797;SDS011;4938;57.492;12.652;2022-08-11T15:46:28;0.50;;;0.50;;
9797;SDS011;4938;57.492;12.652;2022-08-11T15:49:20;0.30;;;0.30;;
9797;SDS011;4938;57.492;12.652;2022-08-11T15:52:14;0.35;;;0.35;;
9797;SDS011;4938;57.492;12.652;2022-08-11T15:55:05;0.30;;;0.30;;
9797;SDS011;4938;57.492;12.652;2022-08-11T15:57:53;0.20;;;0.20;;
9797;SDS011;4938;57.492;12.652;2022-08-11T16:01:00;0.30;;;0.30;;
9797;SDS011;4938;57.492;12.652;2022-08-11T16:04:07;0.32;;;0.32;;
9797;SDS011;4938;57.492;12.652;2022-08-11T16:07:00;0.32;;;0.32;;
9797;SDS011;4938;57.492;12.652;2022-08-11T16:09:50;0.28;;;0.28;;
9797;SDS011;4938;57.492;12.652;2022-08-11T16:12:41;0.30;;;0.30;;
9797;SDS011;4938;57.492;12.652;2022-08-11T16:16:01;0.20;;;0.20;;
9797;SDS011;4938;57.492;12.652;2022-08-11T16:19:01;0.30;;;0.30;;
9797;SDS011;4938;57.492;12.652;2022-08-11T16:21:50;1.17;;;0.32;;
9797;SDS011;4938;57.492;12.652;2022-08-11T16:24:40;0.40;;;0.40;;
9797;SDS011;4938;57.492;12.652;2022-08-11T16:27:30;0.30;;;0.30;;
9797;SDS011;4938;57.492;12.652;2022-08-11T16:30:19;0.40;;;0.40;;
9797;SDS011;4938;57.492;12.652;2022-08-11T16:33:09;0.40;;;0.40;;
9797;SDS011;4938;57.492;12.652;2022-08-11T16:35:58;0.43;;;0.43;;
9797;SDS011;4938;57.492;12.652;2022-08-11T16:39:03;0.30;;;0.20;;
9797;SDS011;4938;57.492;12.652;2022-08-11T16:41:52;0.40;;;0.40;;
9797;SDS011;4938;57.492;12.652;2022-08-11T16:44:56;0.40;;;0.40;;
9797;SDS011;4938;57.492;12.652;2022-08-11T16:48:02;0.30;;;0.30;;
9797;SDS011;4938;57.492;12.652;2022-08-11T16:50:54;0.30;;;0.30;;
9797;SDS011;4938;57.492;12.652;2022-08-11T16:53:45;0.40;;;0.40;;
9797;SDS011;4938;57.492;12.652;2022-08-11T16:56:35;0.20;;;0.20;;
9797;SDS011;4938;57.492;12.652;2022-08-11T16:59:26;0.30;;;0.30;;
9797;SDS011;4938;57.492;12.652;2022-08-11T17:02:17;0.30;;;0.30;;
9797;SDS011;4938;57.492;12.652;2022-08-11T17:05:25;0.22;;;0.22;;
9797;SDS011;4938;57.492;12.652;2022-08-11T17:08:33;0.57;;;0.57;;
9797;SDS011;4938;57.492;12.652;2022-08-11T17:11:43;0.20;;;0.20;;
9797;SDS011;4938;57.492;12.652;2022-08-11T17:14:52;0.32;;;0.32;;
9797;SDS011;4938;57.492;12.652;2022-08-11T17:17:42;0.38;;;0.38;;
9797;SDS011;4938;57.492;12.652;2022-08-11T17:20:31;0.30;;;0.30;;
9797;SDS011;4938;57.492;12.652;2022-08-11T17:23:19;0.30;;;0.30;;
9797;SDS011;4938;57.492;12.652;2022-08-11T17:26:27;1.17;;;0.30;;
9797;SDS011;4938;57.492;12.652;2022-08-11T17:29:32;0.30;;;0.30;;
9797;SDS011;4938;57.492;12.652;2022-08-11T17:32:22;0.38;;;0.38;;
9797;SDS011;4938;57.492;12.652;2022-08-11T17:35:31;0.30;;;0.30;;
9797;SDS011;4938;57.492;12.652;2022-08-11T17:38:20;0.30;;;0.30;;
9797;SDS011;4938;57.492;12.652;2022-08-11T17:41:09;0.30;;;0.30;;
9797;SDS011;4938;57.492;12.652;2022-08-11T17:44:17;0.20;;;0.20;;
9797;SDS011;4938;57.492;12.652;2022-08-11T17:47:21;0.35;;;0.20;;
9797;SDS011;4938;57.492;12.652;2022-08-11T17:50:26;0.40;;;0.40;;
9797;SDS011;4938;57.492;12.652;2022-08-11T17:53:14;0.35;;;0.30;;
9797;SDS011;4938;57.492;12.652;2022-08-11T17:56:19;1.65;;;0.40;;
9797;SDS011;4938;57.492;12.652;2022-08-11T17:59:27;0.55;;;0.47;;
9797;SDS011;4938;57.492;12.652;2022-08-11T18:02:32;0.35;;;0.35;;
9797;SDS011;4938;57.492;12.652;2022-08-11T18:05:40;0.30;;;0.30;;
9797;SDS011;4938;57.492;12.652;2022-08-11T18:08:30;0.35;;;0.35;;
9797;SDS011;4938;57.492;12.652;2022-08-11T18:11:35;0.40;;;0.40;;
9797;SDS011;4938;57.492;12.652;2022-08-11T18:14:44;0.55;;;0.30;;
9797;SDS011;4938;57.492;12.652;2022-08-11T18:17:51;0.40;;;0.40;;
9797;SDS011;4938;57.492;12.652;2022-08-11T18:20:56;0.40;;;0.40;;
9797;SDS011;4938;57.492;12.652;2022-08-11T18:24:02;0.40;;;0.40;;
9797;SDS011;4938;57.492;12.652;2022-08-11T18:27:11;0.30;;;0.30;;
9797;SDS011;4938;57.492;12.652;2022-08-11T18:30:20;0.40;;;0.40;;
9797;SDS011;4938;57.492;12.652;2022-08-11T18:33:26;0.32;;;0.32;;
9797;SDS011;4938;57.492;12.652;2022-08-11T18:36:34;0.40;;;0.40;;
9797;SDS011;4938;57.492;12.652;2022-08-11T18:39:44;0.30;;;0.30;;
9797;SDS011;4938;57.492;12.652;2022-08-11T18:42:54;0.20;;;0.20;;
9797;SDS011;4938;57.492;12.652;2022-08-11T18:46:04;0.32;;;0.32;;
9797;SDS011;4938;57.492;12.652;2022-08-11T18:49:11;0.40;;;0.40;;
9797;SDS011;4938;57.492;12.652;2022-08-11T18:52:18;0.40;;;0.40;;
9797;SDS011;4938;57.492;12.652;2022-08-11T18:55:23;0.30;;;0.30;;
9797;SDS011;4938;57.492;12.652;2022-08-11T18:58:30;0.40;;;0.40;;
9797;SDS011;4938;57.492;12.652;2022-08-11T19:01:38;0.40;;;0.40;;
9797;SDS011;4938;57.492;12.652;2022-08-11T19:04:43;0.43;;;0.43;;
9797;SDS011;4938;57.492;12.652;2022-08-11T19:07:47;0.28;;;0.28;;
9797;SDS011;4938;57.492;12.652;2022-08-11T19:10:54;0.43;;;0.40;;
9797;SDS011;4938;57.492;12.652;2022-08-11T19:13:59;0.38;;;0.38;;